sensor_id;sensor_type;location;lat;lon;timestamp;P1;durP1;ratioP1;P2;durP2;ratioP2
20697;SDS011;10508;50.956;4.640;2022-07-23T00:00:59;9.93;;;6.60;;
20697;SDS011;10508;50.956;4.640;2022-07-23T00:03:25;7.90;;;5.28;;
20697;SDS011;10508;50.956;4.640;2022-07-23T00:05:51;11.98;;;7.40;;
20697;SDS011;10508;50.956;4.640;2022-07-23T00:08:17;12.05;;;6.95;;
20697;SDS011;10508;50.956;4.640;2022-07-23T00:10:43;12.65;;;7.47;;
20697;SDS011;10508;50.956;4.640;2022-07-23T00:13:08;12.45;;;6.90;;
20697;SDS011;10508;50.956;4.640;2022-07-23T00:15:34;11.40;;;6.50;;
20697;SDS011;10508;50.956;4.640;2022-07-23T00:18:00;9.93;;;6.45;;
20697;SDS011;10508;50.956;4.640;2022-07-23T00:20:25;10.93;;;5.38;;
20697;SDS011;10508;50.956;4.640;2022-07-23T00:22:52;12.00;;;6.57;;
20697;SDS011;10508;50.956;4.640;2022-07-23T00:25:20;11.73;;;6.75;;
20697;SDS011;10508;50.956;4.640;2022-07-23T00:27:46;13.18;;;6.28;;
20697;SDS011;10508;50.956;4.640;2022-07-23T00:30:12;10.10;;;6.53;;
20697;SDS011;10508;50.956;4.640;2022-07-23T00:32:48;17.58;;;7.80;;
20697;SDS011;10508;50.956;4.640;2022-07-23T00:35:15;10.30;;;6.32;;
20697;SDS011;10508;50.956;4.640;2022-07-23T00:37:44;11.77;;;7.00;;
20697;SDS011;10508;50.956;4.640;2022-07-23T00:40:10;12.85;;;7.47;;
20697;SDS011;10508;50.956;4.640;2022-07-23T00:42:35;13.00;;;7.15;;
20697;SDS011;10508;50.956;4.640;2022-07-23T00:45:01;14.70;;;8.15;;
20697;SDS011;10508;50.956;4.640;2022-07-23T00:47:27;11.18;;;7.05;;
20697;SDS011;10508;50.956;4.640;2022-07-23T00:49:53;14.18;;;8.15;;
20697;SDS011;10508;50.956;4.640;2022-07-23T00:52:18;13.05;;;7.63;;
20697;SDS011;10508;50.956;4.640;2022-07-23T00:54:44;13.45;;;7.55;;
20697;SDS011;10508;50.956;4.640;2022-07-23T00:57:10;9.43;;;6.10;;
20697;SDS011;10508;50.956;4.640;2022-07-23T00:59:38;10.52;;;7.13;;
20697;SDS011;10508;50.956;4.640;2022-07-23T01:02:03;11.43;;;6.43;;
20697;SDS011;10508;50.956;4.640;2022-07-23T01:04:29;9.02;;;5.95;;
20697;SDS011;10508;50.956;4.640;2022-07-23T01:06:55;15.25;;;7.75;;
20697;SDS011;10508;50.956;4.640;2022-07-23T01:09:20;11.38;;;7.15;;
20697;SDS011;10508;50.956;4.640;2022-07-23T01:11:46;11.93;;;7.15;;
20697;SDS011;10508;50.956;4.640;2022-07-23T01:14:12;14.73;;;7.40;;
20697;SDS011;10508;50.956;4.640;2022-07-23T01:16:40;12.13;;;7.80;;
20697;SDS011;10508;50.956;4.640;2022-07-23T01:19:08;12.98;;;7.45;;
20697;SDS011;10508;50.956;4.640;2022-07-23T01:21:45;13.35;;;7.60;;
20697;SDS011;10508;50.956;4.640;2022-07-23T01:24:12;10.82;;;6.80;;
20697;SDS011;10508;50.956;4.640;2022-07-23T01:26:39;12.40;;;8.00;;
20697;SDS011;10508;50.956;4.640;2022-07-23T01:29:09;16.05;;;7.90;;
20697;SDS011;10508;50.956;4.640;2022-07-23T01:31:35;13.10;;;8.40;;
20697;SDS011;10508;50.956;4.640;2022-07-23T01:34:01;15.75;;;7.80;;
20697;SDS011;10508;50.956;4.640;2022-07-23T01:36:27;11.15;;;6.40;;
20697;SDS011;10508;50.956;4.640;2022-07-23T01:38:53;13.10;;;7.70;;
20697;SDS011;10508;50.956;4.640;2022-07-23T01:41:19;15.73;;;8.20;;
20697;SDS011;10508;50.956;4.640;2022-07-23T01:43:44;14.48;;;8.57;;
20697;SDS011;10508;50.956;4.640;2022-07-23T01:46:10;14.30;;;8.45;;
20697;SDS011;10508;50.956;4.640;2022-07-23T01:48:36;19.55;;;8.30;;
20697;SDS011;10508;50.956;4.640;2022-07-23T01:51:01;11.70;;;6.90;;
20697;SDS011;10508;50.956;4.640;2022-07-23T01:53:27;12.60;;;6.97;;
20697;SDS011;10508;50.956;4.640;2022-07-23T01:55:56;9.90;;;6.47;;
20697;SDS011;10508;50.956;4.640;2022-07-23T01:58:22;10.40;;;6.63;;
20697;SDS011;10508;50.956;4.640;2022-07-23T02:00:48;11.73;;;7.15;;
20697;SDS011;10508;50.956;4.640;2022-07-23T02:03:13;12.00;;;7.68;;
20697;SDS011;10508;50.956;4.640;2022-07-23T02:05:57;12.90;;;7.90;;
20697;SDS011;10508;50.956;4.640;2022-07-23T02:08:23;12.48;;;7.93;;
20697;SDS011;10508;50.956;4.640;2022-07-23T02:10:48;10.70;;;7.07;;
20697;SDS011;10508;50.956;4.640;2022-07-23T02:13:16;11.30;;;7.55;;
20697;SDS011;10508;50.956;4.640;2022-07-23T02:15:42;13.90;;;8.23;;
20697;SDS011;10508;50.956;4.640;2022-07-23T02:18:08;11.07;;;7.10;;
20697;SDS011;10508;50.956;4.640;2022-07-23T02:20:34;15.65;;;8.52;;
20697;SDS011;10508;50.956;4.640;2022-07-23T02:22:59;10.82;;;7.40;;
20697;SDS011;10508;50.956;4.640;2022-07-23T02:25:25;12.50;;;7.18;;
20697;SDS011;10508;50.956;4.640;2022-07-23T02:27:51;13.63;;;7.03;;
20697;SDS011;10508;50.956;4.640;2022-07-23T02:30:16;14.13;;;7.13;;
20697;SDS011;10508;50.956;4.640;2022-07-23T02:32:42;12.05;;;7.30;;
20697;SDS011;10508;50.956;4.640;2022-07-23T02:35:26;14.13;;;7.82;;
20697;SDS011;10508;50.956;4.640;2022-07-23T02:37:52;13.65;;;7.05;;
20697;SDS011;10508;50.956;4.640;2022-07-23T02:40:18;13.63;;;8.15;;
20697;SDS011;10508;50.956;4.640;2022-07-23T02:42:43;14.38;;;7.00;;
20697;SDS011;10508;50.956;4.640;2022-07-23T02:45:09;14.75;;;7.28;;
20697;SDS011;10508;50.956;4.640;2022-07-23T02:47:35;13.65;;;8.25;;
20697;SDS011;10508;50.956;4.640;2022-07-23T02:50:00;17.63;;;8.90;;
20697;SDS011;10508;50.956;4.640;2022-07-23T02:52:26;13.02;;;8.13;;
20697;SDS011;10508;50.956;4.640;2022-07-23T02:54:52;13.15;;;7.78;;
20697;SDS011;10508;50.956;4.640;2022-07-23T02:57:17;10.93;;;7.32;;
20697;SDS011;10508;50.956;4.640;2022-07-23T02:59:43;12.07;;;7.45;;
20697;SDS011;10508;50.956;4.640;2022-07-23T03:02:09;16.65;;;7.72;;
20697;SDS011;10508;50.956;4.640;2022-07-23T03:04:34;14.13;;;7.70;;
20697;SDS011;10508;50.956;4.640;2022-07-23T03:07:00;12.02;;;7.75;;
20697;SDS011;10508;50.956;4.640;2022-07-23T03:09:25;11.07;;;6.95;;
20697;SDS011;10508;50.956;4.640;2022-07-23T03:11:51;12.57;;;7.65;;
20697;SDS011;10508;50.956;4.640;2022-07-23T03:14:17;16.73;;;9.23;;
20697;SDS011;10508;50.956;4.640;2022-07-23T03:16:42;16.13;;;8.43;;
20697;SDS011;10508;50.956;4.640;2022-07-23T03:19:08;15.73;;;8.85;;
20697;SDS011;10508;50.956;4.640;2022-07-23T03:21:33;15.88;;;8.70;;
20697;SDS011;10508;50.956;4.640;2022-07-23T03:24:00;13.13;;;8.82;;
20697;SDS011;10508;50.956;4.640;2022-07-23T03:26:26;13.43;;;8.88;;
20697;SDS011;10508;50.956;4.640;2022-07-23T03:28:51;14.85;;;8.55;;
20697;SDS011;10508;50.956;4.640;2022-07-23T03:31:17;14.63;;;8.35;;
20697;SDS011;10508;50.956;4.640;2022-07-23T03:33:43;12.98;;;8.68;;
20697;SDS011;10508;50.956;4.640;2022-07-23T03:36:09;14.20;;;8.52;;
20697;SDS011;10508;50.956;4.640;2022-07-23T03:38:34;14.05;;;8.35;;
20697;SDS011;10508;50.956;4.640;2022-07-23T03:41:00;18.98;;;8.48;;
20697;SDS011;10508;50.956;4.640;2022-07-23T03:43:26;19.25;;;9.02;;
20697;SDS011;10508;50.956;4.640;2022-07-23T03:45:51;16.42;;;8.43;;
20697;SDS011;10508;50.956;4.640;2022-07-23T03:48:17;15.55;;;9.02;;
20697;SDS011;10508;50.956;4.640;2022-07-23T03:50:42;17.08;;;9.40;;
20697;SDS011;10508;50.956;4.640;2022-07-23T03:53:08;17.85;;;9.20;;
20697;SDS011;10508;50.956;4.640;2022-07-23T03:55:34;12.95;;;7.75;;
20697;SDS011;10508;50.956;4.640;2022-07-23T03:58:00;12.07;;;8.02;;
20697;SDS011;10508;50.956;4.640;2022-07-23T04:00:31;13.07;;;7.40;;
20697;SDS011;10508;50.956;4.640;2022-07-23T04:02:57;13.52;;;7.72;;
20697;SDS011;10508;50.956;4.640;2022-07-23T04:05:23;14.38;;;8.82;;
20697;SDS011;10508;50.956;4.640;2022-07-23T04:07:48;12.63;;;7.63;;
20697;SDS011;10508;50.956;4.640;2022-07-23T04:10:14;11.65;;;7.55;;
20697;SDS011;10508;50.956;4.640;2022-07-23T04:12:39;12.23;;;7.45;;
20697;SDS011;10508;50.956;4.640;2022-07-23T04:15:07;14.55;;;8.40;;
20697;SDS011;10508;50.956;4.640;2022-07-23T04:17:34;15.77;;;8.40;;
20697;SDS011;10508;50.956;4.640;2022-07-23T04:20:00;14.02;;;8.93;;
20697;SDS011;10508;50.956;4.640;2022-07-23T04:22:32;14.48;;;8.05;;
20697;SDS011;10508;50.956;4.640;2022-07-23T04:24:58;13.40;;;8.13;;
20697;SDS011;10508;50.956;4.640;2022-07-23T04:27:32;14.00;;;8.27;;
20697;SDS011;10508;50.956;4.640;2022-07-23T04:29:58;14.23;;;8.55;;
20697;SDS011;10508;50.956;4.640;2022-07-23T04:32:24;15.43;;;9.27;;
20697;SDS011;10508;50.956;4.640;2022-07-23T04:34:50;13.35;;;7.78;;
20697;SDS011;10508;50.956;4.640;2022-07-23T04:37:16;14.40;;;8.63;;
20697;SDS011;10508;50.956;4.640;2022-07-23T04:39:41;13.65;;;8.52;;
20697;SDS011;10508;50.956;4.640;2022-07-23T04:42:07;14.30;;;8.10;;
20697;SDS011;10508;50.956;4.640;2022-07-23T04:44:32;11.68;;;7.55;;
20697;SDS011;10508;50.956;4.640;2022-07-23T04:46:58;13.00;;;7.45;;
20697;SDS011;10508;50.956;4.640;2022-07-23T04:49:24;11.98;;;8.23;;
20697;SDS011;10508;50.956;4.640;2022-07-23T04:51:49;15.95;;;8.30;;
20697;SDS011;10508;50.956;4.640;2022-07-23T04:54:15;13.75;;;8.20;;
20697;SDS011;10508;50.956;4.640;2022-07-23T04:56:42;16.05;;;8.02;;
20697;SDS011;10508;50.956;4.640;2022-07-23T04:59:08;11.77;;;7.38;;
20697;SDS011;10508;50.956;4.640;2022-07-23T05:01:33;14.15;;;7.75;;
20697;SDS011;10508;50.956;4.640;2022-07-23T05:03:59;17.60;;;8.90;;
20697;SDS011;10508;50.956;4.640;2022-07-23T05:06:24;16.55;;;9.63;;
20697;SDS011;10508;50.956;4.640;2022-07-23T05:08:50;16.30;;;8.57;;
20697;SDS011;10508;50.956;4.640;2022-07-23T05:11:16;13.45;;;8.52;;
20697;SDS011;10508;50.956;4.640;2022-07-23T05:13:41;16.15;;;9.57;;
20697;SDS011;10508;50.956;4.640;2022-07-23T05:16:07;20.92;;;10.55;;
20697;SDS011;10508;50.956;4.640;2022-07-23T05:18:32;22.23;;;11.02;;
20697;SDS011;10508;50.956;4.640;2022-07-23T05:20:58;15.57;;;9.68;;
20697;SDS011;10508;50.956;4.640;2022-07-23T05:23:24;18.33;;;10.13;;
20697;SDS011;10508;50.956;4.640;2022-07-23T05:25:49;20.05;;;11.35;;
20697;SDS011;10508;50.956;4.640;2022-07-23T05:28:15;22.38;;;11.30;;
20697;SDS011;10508;50.956;4.640;2022-07-23T05:30:40;25.85;;;11.35;;
20697;SDS011;10508;50.956;4.640;2022-07-23T05:33:06;16.17;;;10.20;;
20697;SDS011;10508;50.956;4.640;2022-07-23T05:35:33;19.23;;;10.88;;
20697;SDS011;10508;50.956;4.640;2022-07-23T05:37:58;21.50;;;11.00;;
20697;SDS011;10508;50.956;4.640;2022-07-23T05:40:24;18.40;;;10.20;;
20697;SDS011;10508;50.956;4.640;2022-07-23T05:42:50;15.90;;;10.02;;
20697;SDS011;10508;50.956;4.640;2022-07-23T05:45:15;17.52;;;10.05;;
20697;SDS011;10508;50.956;4.640;2022-07-23T05:47:47;18.48;;;10.38;;
20697;SDS011;10508;50.956;4.640;2022-07-23T05:50:14;15.45;;;9.85;;
20697;SDS011;10508;50.956;4.640;2022-07-23T05:52:40;14.38;;;9.63;;
20697;SDS011;10508;50.956;4.640;2022-07-23T05:55:10;18.10;;;10.45;;
20697;SDS011;10508;50.956;4.640;2022-07-23T05:57:37;18.88;;;10.68;;
20697;SDS011;10508;50.956;4.640;2022-07-23T06:00:03;16.00;;;9.80;;
20697;SDS011;10508;50.956;4.640;2022-07-23T06:02:31;18.00;;;9.85;;
20697;SDS011;10508;50.956;4.640;2022-07-23T06:05:02;13.68;;;8.45;;
20697;SDS011;10508;50.956;4.640;2022-07-23T06:07:28;15.65;;;9.63;;
20697;SDS011;10508;50.956;4.640;2022-07-23T06:09:54;18.88;;;9.43;;
20697;SDS011;10508;50.956;4.640;2022-07-23T06:12:19;22.40;;;9.77;;
20697;SDS011;10508;50.956;4.640;2022-07-23T06:14:45;13.65;;;8.73;;
20697;SDS011;10508;50.956;4.640;2022-07-23T06:17:13;15.65;;;9.05;;
20697;SDS011;10508;50.956;4.640;2022-07-23T06:19:39;17.13;;;9.23;;
20697;SDS011;10508;50.956;4.640;2022-07-23T06:22:04;19.35;;;8.95;;
20697;SDS011;10508;50.956;4.640;2022-07-23T06:24:30;14.20;;;9.10;;
20697;SDS011;10508;50.956;4.640;2022-07-23T06:26:56;16.40;;;9.75;;
20697;SDS011;10508;50.956;4.640;2022-07-23T06:29:21;13.43;;;8.55;;
20697;SDS011;10508;50.956;4.640;2022-07-23T06:31:47;13.98;;;8.77;;
20697;SDS011;10508;50.956;4.640;2022-07-23T06:34:12;15.73;;;9.30;;
20697;SDS011;10508;50.956;4.640;2022-07-23T06:36:38;14.43;;;9.25;;
20697;SDS011;10508;50.956;4.640;2022-07-23T06:39:16;12.27;;;8.38;;
20697;SDS011;10508;50.956;4.640;2022-07-23T06:41:41;13.50;;;8.88;;
20697;SDS011;10508;50.956;4.640;2022-07-23T06:44:07;15.23;;;9.10;;
20697;SDS011;10508;50.956;4.640;2022-07-23T06:46:33;18.67;;;9.50;;
20697;SDS011;10508;50.956;4.640;2022-07-23T06:48:58;17.15;;;10.07;;
20697;SDS011;10508;50.956;4.640;2022-07-23T06:51:24;16.35;;;8.38;;
20697;SDS011;10508;50.956;4.640;2022-07-23T06:53:50;16.00;;;9.15;;
20697;SDS011;10508;50.956;4.640;2022-07-23T06:56:15;13.43;;;8.48;;
20697;SDS011;10508;50.956;4.640;2022-07-23T06:58:41;14.55;;;8.27;;
20697;SDS011;10508;50.956;4.640;2022-07-23T07:01:07;13.80;;;7.85;;
20697;SDS011;10508;50.956;4.640;2022-07-23T07:03:32;13.20;;;8.27;;
20697;SDS011;10508;50.956;4.640;2022-07-23T07:05:58;14.52;;;9.30;;
20697;SDS011;10508;50.956;4.640;2022-07-23T07:08:24;13.52;;;8.57;;
20697;SDS011;10508;50.956;4.640;2022-07-23T07:10:50;17.42;;;8.80;;
20697;SDS011;10508;50.956;4.640;2022-07-23T07:13:15;16.00;;;8.38;;
20697;SDS011;10508;50.956;4.640;2022-07-23T07:15:41;14.70;;;8.90;;
20697;SDS011;10508;50.956;4.640;2022-07-23T07:18:07;14.25;;;8.50;;
20697;SDS011;10508;50.956;4.640;2022-07-23T07:20:32;15.55;;;8.30;;
20697;SDS011;10508;50.956;4.640;2022-07-23T07:22:58;12.55;;;8.18;;
20697;SDS011;10508;50.956;4.640;2022-07-23T07:25:24;17.75;;;8.85;;
20697;SDS011;10508;50.956;4.640;2022-07-23T07:27:49;19.95;;;8.38;;
20697;SDS011;10508;50.956;4.640;2022-07-23T07:30:15;16.02;;;8.73;;
20697;SDS011;10508;50.956;4.640;2022-07-23T07:32:41;11.82;;;7.25;;
20697;SDS011;10508;50.956;4.640;2022-07-23T07:35:07;15.70;;;9.77;;
20697;SDS011;10508;50.956;4.640;2022-07-23T07:37:33;13.80;;;8.88;;
20697;SDS011;10508;50.956;4.640;2022-07-23T07:39:59;21.77;;;8.90;;
20697;SDS011;10508;50.956;4.640;2022-07-23T07:42:25;12.65;;;8.20;;
20697;SDS011;10508;50.956;4.640;2022-07-23T07:44:51;18.80;;;8.95;;
20697;SDS011;10508;50.956;4.640;2022-07-23T07:47:17;12.30;;;7.40;;
20697;SDS011;10508;50.956;4.640;2022-07-23T07:49:42;11.80;;;7.20;;
20697;SDS011;10508;50.956;4.640;2022-07-23T07:52:09;14.85;;;7.35;;
20697;SDS011;10508;50.956;4.640;2022-07-23T07:54:35;13.60;;;8.13;;
20697;SDS011;10508;50.956;4.640;2022-07-23T07:57:01;14.07;;;7.68;;
20697;SDS011;10508;50.956;4.640;2022-07-23T07:59:26;13.35;;;6.53;;
20697;SDS011;10508;50.956;4.640;2022-07-23T08:01:52;9.93;;;6.32;;
20697;SDS011;10508;50.956;4.640;2022-07-23T08:04:18;13.07;;;6.65;;
20697;SDS011;10508;50.956;4.640;2022-07-23T08:06:43;8.55;;;6.20;;
20697;SDS011;10508;50.956;4.640;2022-07-23T08:09:09;12.95;;;6.15;;
20697;SDS011;10508;50.956;4.640;2022-07-23T08:11:35;8.32;;;5.65;;
20697;SDS011;10508;50.956;4.640;2022-07-23T08:14:00;13.38;;;6.78;;
20697;SDS011;10508;50.956;4.640;2022-07-23T08:16:26;12.00;;;6.68;;
20697;SDS011;10508;50.956;4.640;2022-07-23T08:19:10;10.98;;;6.13;;
20697;SDS011;10508;50.956;4.640;2022-07-23T08:21:36;12.57;;;6.60;;
20697;SDS011;10508;50.956;4.640;2022-07-23T08:24:01;9.07;;;5.35;;
20697;SDS011;10508;50.956;4.640;2022-07-23T08:26:27;7.90;;;5.55;;
20697;SDS011;10508;50.956;4.640;2022-07-23T08:28:53;11.10;;;5.50;;
20697;SDS011;10508;50.956;4.640;2022-07-23T08:31:18;8.85;;;5.75;;
20697;SDS011;10508;50.956;4.640;2022-07-23T08:33:44;9.90;;;5.15;;
20697;SDS011;10508;50.956;4.640;2022-07-23T08:36:09;9.40;;;5.78;;
20697;SDS011;10508;50.956;4.640;2022-07-23T08:38:35;9.05;;;4.90;;
20697;SDS011;10508;50.956;4.640;2022-07-23T08:41:01;10.88;;;5.70;;
20697;SDS011;10508;50.956;4.640;2022-07-23T08:43:30;9.65;;;5.20;;
20697;SDS011;10508;50.956;4.640;2022-07-23T08:45:57;8.65;;;4.68;;
20697;SDS011;10508;50.956;4.640;2022-07-23T08:48:25;9.88;;;5.13;;
20697;SDS011;10508;50.956;4.640;2022-07-23T08:50:53;6.90;;;3.90;;
20697;SDS011;10508;50.956;4.640;2022-07-23T08:53:22;8.63;;;4.40;;
20697;SDS011;10508;50.956;4.640;2022-07-23T08:55:49;6.63;;;4.30;;
20697;SDS011;10508;50.956;4.640;2022-07-23T08:58:17;11.73;;;5.85;;
20697;SDS011;10508;50.956;4.640;2022-07-23T09:00:44;14.30;;;5.68;;
20697;SDS011;10508;50.956;4.640;2022-07-23T09:03:17;10.80;;;5.50;;
20697;SDS011;10508;50.956;4.640;2022-07-23T09:05:45;9.07;;;5.13;;
20697;SDS011;10508;50.956;4.640;2022-07-23T09:08:12;10.40;;;5.13;;
20697;SDS011;10508;50.956;4.640;2022-07-23T09:13:22;8.07;;;4.80;;
20697;SDS011;10508;50.956;4.640;2022-07-23T09:16:23;9.73;;;4.97;;
20697;SDS011;10508;50.956;4.640;2022-07-23T09:19:01;6.88;;;4.72;;
20697;SDS011;10508;50.956;4.640;2022-07-23T09:21:31;8.05;;;4.20;;
20697;SDS011;10508;50.956;4.640;2022-07-23T09:23:59;10.10;;;4.75;;
20697;SDS011;10508;50.956;4.640;2022-07-23T09:28:57;8.35;;;4.60;;
20697;SDS011;10508;50.956;4.640;2022-07-23T09:31:31;6.82;;;3.50;;
20697;SDS011;10508;50.956;4.640;2022-07-23T09:34:08;7.53;;;3.75;;
20697;SDS011;10508;50.956;4.640;2022-07-23T09:36:37;6.90;;;3.42;;
20697;SDS011;10508;50.956;4.640;2022-07-23T09:39:03;4.30;;;2.80;;
20697;SDS011;10508;50.956;4.640;2022-07-23T09:41:33;7.82;;;3.22;;
20697;SDS011;10508;50.956;4.640;2022-07-23T09:44:08;8.77;;;4.57;;
20697;SDS011;10508;50.956;4.640;2022-07-23T09:46:36;5.65;;;3.60;;
20697;SDS011;10508;50.956;4.640;2022-07-23T09:49:12;7.53;;;3.60;;
20697;SDS011;10508;50.956;4.640;2022-07-23T09:51:55;6.50;;;3.60;;
20697;SDS011;10508;50.956;4.640;2022-07-23T09:54:25;4.63;;;2.95;;
20697;SDS011;10508;50.956;4.640;2022-07-23T09:56:54;6.30;;;3.83;;
20697;SDS011;10508;50.956;4.640;2022-07-23T09:59:22;5.72;;;3.65;;
20697;SDS011;10508;50.956;4.640;2022-07-23T10:01:53;4.22;;;2.80;;
20697;SDS011;10508;50.956;4.640;2022-07-23T10:04:22;5.13;;;3.25;;
20697;SDS011;10508;50.956;4.640;2022-07-23T10:06:50;5.90;;;2.88;;
20697;SDS011;10508;50.956;4.640;2022-07-23T10:09:20;8.07;;;3.75;;
20697;SDS011;10508;50.956;4.640;2022-07-23T10:11:53;7.82;;;3.80;;
20697;SDS011;10508;50.956;4.640;2022-07-23T10:14:25;3.72;;;2.88;;
20697;SDS011;10508;50.956;4.640;2022-07-23T10:16:52;5.97;;;2.90;;
20697;SDS011;10508;50.956;4.640;2022-07-23T10:19:18;5.85;;;3.00;;
20697;SDS011;10508;50.956;4.640;2022-07-23T10:21:57;7.55;;;3.22;;
20697;SDS011;10508;50.956;4.640;2022-07-23T10:41:13;4.97;;;2.55;;
20697;SDS011;10508;50.956;4.640;2022-07-23T10:43:39;3.25;;;1.90;;
20697;SDS011;10508;50.956;4.640;2022-07-23T10:49:21;3.05;;;1.95;;
20697;SDS011;10508;50.956;4.640;2022-07-23T10:54:56;3.85;;;2.30;;
20697;SDS011;10508;50.956;4.640;2022-07-23T10:57:48;5.70;;;2.33;;
20697;SDS011;10508;50.956;4.640;2022-07-23T11:00:33;3.75;;;2.28;;
20697;SDS011;10508;50.956;4.640;2022-07-23T11:03:02;3.05;;;1.77;;
20697;SDS011;10508;50.956;4.640;2022-07-23T11:05:47;3.00;;;1.90;;
20697;SDS011;10508;50.956;4.640;2022-07-23T11:08:14;3.92;;;1.67;;
20697;SDS011;10508;50.956;4.640;2022-07-23T11:13:40;5.00;;;1.85;;
20697;SDS011;10508;50.956;4.640;2022-07-23T11:31:56;2.83;;;1.63;;
20697;SDS011;10508;50.956;4.640;2022-07-23T11:34:39;2.17;;;1.35;;
20697;SDS011;10508;50.956;4.640;2022-07-23T11:37:07;1.65;;;1.20;;
20697;SDS011;10508;50.956;4.640;2022-07-23T11:39:34;2.42;;;1.48;;
20697;SDS011;10508;50.956;4.640;2022-07-23T11:42:00;1.92;;;1.30;;
20697;SDS011;10508;50.956;4.640;2022-07-23T11:49:24;2.17;;;1.40;;
20697;SDS011;10508;50.956;4.640;2022-07-23T11:54:37;1.77;;;1.20;;
20697;SDS011;10508;50.956;4.640;2022-07-23T11:57:33;2.03;;;1.30;;
20697;SDS011;10508;50.956;4.640;2022-07-23T12:00:06;2.70;;;1.27;;
20697;SDS011;10508;50.956;4.640;2022-07-23T12:02:48;2.50;;;1.23;;
20697;SDS011;10508;50.956;4.640;2022-07-23T12:05:16;2.38;;;1.35;;
20697;SDS011;10508;50.956;4.640;2022-07-23T12:07:44;1.50;;;1.10;;
20697;SDS011;10508;50.956;4.640;2022-07-23T12:10:35;4.13;;;1.10;;
20697;SDS011;10508;50.956;4.640;2022-07-23T12:13:01;1.98;;;1.35;;
20697;SDS011;10508;50.956;4.640;2022-07-23T12:15:29;2.13;;;1.50;;
20697;SDS011;10508;50.956;4.640;2022-07-23T12:18:05;2.05;;;1.48;;
20697;SDS011;10508;50.956;4.640;2022-07-23T12:20:42;1.80;;;1.52;;
20697;SDS011;10508;50.956;4.640;2022-07-23T12:23:10;3.38;;;1.85;;
20697;SDS011;10508;50.956;4.640;2022-07-23T12:25:38;3.00;;;1.50;;
20697;SDS011;10508;50.956;4.640;2022-07-23T12:28:07;1.95;;;1.52;;
20697;SDS011;10508;50.956;4.640;2022-07-23T12:30:49;3.20;;;1.67;;
20697;SDS011;10508;50.956;4.640;2022-07-23T12:33:23;3.58;;;1.48;;
20697;SDS011;10508;50.956;4.640;2022-07-23T12:35:50;3.97;;;1.67;;
20697;SDS011;10508;50.956;4.640;2022-07-23T12:38:18;2.92;;;1.80;;
20697;SDS011;10508;50.956;4.640;2022-07-23T12:41:19;3.33;;;1.90;;
20697;SDS011;10508;50.956;4.640;2022-07-23T12:43:39;5.75;;;1.83;;
20697;SDS011;10508;50.956;4.640;2022-07-23T12:46:08;2.75;;;1.80;;
20697;SDS011;10508;50.956;4.640;2022-07-23T12:53:54;4.47;;;1.92;;
20697;SDS011;10508;50.956;4.640;2022-07-23T12:56:32;2.42;;;1.95;;
20697;SDS011;10508;50.956;4.640;2022-07-23T13:01:36;4.57;;;1.60;;
20697;SDS011;10508;50.956;4.640;2022-07-23T13:04:04;2.28;;;1.70;;
20697;SDS011;10508;50.956;4.640;2022-07-23T13:06:31;2.70;;;1.90;;
20697;SDS011;10508;50.956;4.640;2022-07-23T13:08:58;3.25;;;2.00;;
20697;SDS011;10508;50.956;4.640;2022-07-23T13:11:24;3.58;;;1.80;;
20697;SDS011;10508;50.956;4.640;2022-07-23T13:13:50;3.13;;;1.77;;
20697;SDS011;10508;50.956;4.640;2022-07-23T13:16:16;3.72;;;2.00;;
20697;SDS011;10508;50.956;4.640;2022-07-23T13:18:41;3.00;;;1.77;;
20697;SDS011;10508;50.956;4.640;2022-07-23T13:21:07;3.55;;;1.88;;
20697;SDS011;10508;50.956;4.640;2022-07-23T13:23:33;2.47;;;1.70;;
20697;SDS011;10508;50.956;4.640;2022-07-23T13:26:00;3.30;;;1.80;;
20697;SDS011;10508;50.956;4.640;2022-07-23T13:28:25;5.45;;;2.58;;
20697;SDS011;10508;50.956;4.640;2022-07-23T13:30:51;2.53;;;1.70;;
20697;SDS011;10508;50.956;4.640;2022-07-23T13:33:21;2.70;;;1.73;;
20697;SDS011;10508;50.956;4.640;2022-07-23T13:35:48;2.00;;;1.80;;
20697;SDS011;10508;50.956;4.640;2022-07-23T13:38:14;3.47;;;1.70;;
20697;SDS011;10508;50.956;4.640;2022-07-23T13:40:41;4.25;;;1.75;;
20697;SDS011;10508;50.956;4.640;2022-07-23T13:43:09;4.97;;;1.67;;
20697;SDS011;10508;50.956;4.640;2022-07-23T13:45:36;2.55;;;1.60;;
20697;SDS011;10508;50.956;4.640;2022-07-23T13:48:03;2.17;;;1.70;;
20697;SDS011;10508;50.956;4.640;2022-07-23T13:50:29;3.70;;;1.90;;
20697;SDS011;10508;50.956;4.640;2022-07-23T13:52:55;3.00;;;1.73;;
20697;SDS011;10508;50.956;4.640;2022-07-23T13:55:20;2.83;;;2.03;;
20697;SDS011;10508;50.956;4.640;2022-07-23T13:57:47;2.67;;;2.10;;
20697;SDS011;10508;50.956;4.640;2022-07-23T14:00:12;4.53;;;2.30;;
20697;SDS011;10508;50.956;4.640;2022-07-23T14:02:39;2.30;;;1.88;;
20697;SDS011;10508;50.956;4.640;2022-07-23T14:05:06;4.32;;;2.00;;
20697;SDS011;10508;50.956;4.640;2022-07-23T14:07:33;5.38;;;2.55;;
20697;SDS011;10508;50.956;4.640;2022-07-23T14:10:00;3.42;;;2.10;;
20697;SDS011;10508;50.956;4.640;2022-07-23T14:12:26;2.90;;;2.25;;
20697;SDS011;10508;50.956;4.640;2022-07-23T14:14:51;3.17;;;1.90;;
20697;SDS011;10508;50.956;4.640;2022-07-23T14:17:17;2.85;;;2.00;;
20697;SDS011;10508;50.956;4.640;2022-07-23T14:19:43;3.63;;;2.20;;
20697;SDS011;10508;50.956;4.640;2022-07-23T14:22:09;3.45;;;2.35;;
20697;SDS011;10508;50.956;4.640;2022-07-23T14:24:35;3.83;;;2.60;;
20697;SDS011;10508;50.956;4.640;2022-07-23T14:27:01;3.05;;;2.35;;
20697;SDS011;10508;50.956;4.640;2022-07-23T14:29:28;5.57;;;2.70;;
20697;SDS011;10508;50.956;4.640;2022-07-23T14:31:54;3.22;;;2.13;;
20697;SDS011;10508;50.956;4.640;2022-07-23T14:34:19;2.80;;;2.28;;
20697;SDS011;10508;50.956;4.640;2022-07-23T14:36:45;4.60;;;2.60;;
20697;SDS011;10508;50.956;4.640;2022-07-23T14:39:11;5.32;;;2.40;;
20697;SDS011;10508;50.956;4.640;2022-07-23T14:41:37;3.75;;;2.40;;
20697;SDS011;10508;50.956;4.640;2022-07-23T14:44:03;3.47;;;2.25;;
20697;SDS011;10508;50.956;4.640;2022-07-23T14:46:30;6.20;;;2.72;;
20697;SDS011;10508;50.956;4.640;2022-07-23T14:48:55;5.03;;;2.00;;
20697;SDS011;10508;50.956;4.640;2022-07-23T14:51:21;5.47;;;2.58;;
20697;SDS011;10508;50.956;4.640;2022-07-23T14:53:47;3.75;;;2.58;;
20697;SDS011;10508;50.956;4.640;2022-07-23T14:56:13;3.85;;;2.22;;
20697;SDS011;10508;50.956;4.640;2022-07-23T14:58:39;4.82;;;2.50;;
20697;SDS011;10508;50.956;4.640;2022-07-23T15:01:05;7.60;;;2.67;;
20697;SDS011;10508;50.956;4.640;2022-07-23T15:03:31;8.18;;;3.38;;
20697;SDS011;10508;50.956;4.640;2022-07-23T15:05:58;4.10;;;2.60;;
20697;SDS011;10508;50.956;4.640;2022-07-23T15:08:24;3.80;;;2.40;;
20697;SDS011;10508;50.956;4.640;2022-07-23T15:10:51;4.60;;;2.70;;
20697;SDS011;10508;50.956;4.640;2022-07-23T15:13:17;3.55;;;2.53;;
20697;SDS011;10508;50.956;4.640;2022-07-23T15:15:43;3.28;;;2.33;;
20697;SDS011;10508;50.956;4.640;2022-07-23T15:18:09;5.03;;;2.83;;
20697;SDS011;10508;50.956;4.640;2022-07-23T15:20:35;4.53;;;2.63;;
20697;SDS011;10508;50.956;4.640;2022-07-23T15:23:03;3.78;;;2.40;;
20697;SDS011;10508;50.956;4.640;2022-07-23T15:25:32;3.55;;;2.22;;
20697;SDS011;10508;50.956;4.640;2022-07-23T15:27:58;3.20;;;2.67;;
20697;SDS011;10508;50.956;4.640;2022-07-23T15:30:24;6.20;;;3.25;;
20697;SDS011;10508;50.956;4.640;2022-07-23T15:32:51;3.58;;;2.70;;
20697;SDS011;10508;50.956;4.640;2022-07-23T15:35:17;4.90;;;3.05;;
20697;SDS011;10508;50.956;4.640;2022-07-23T15:37:42;4.25;;;2.80;;
20697;SDS011;10508;50.956;4.640;2022-07-23T15:40:08;3.03;;;2.35;;
20697;SDS011;10508;50.956;4.640;2022-07-23T15:42:35;3.90;;;3.25;;
20697;SDS011;10508;50.956;4.640;2022-07-23T15:45:01;3.90;;;2.65;;